createdAt,value
2024-01-15T00:02:18.587Z,-3.42
2024-01-15T00:04:45.174Z,-3.42
2024-01-15T00:07:11.832Z,-3.34
2024-01-15T00:09:38.479Z,-3.32
2024-01-15T00:12:05.576Z,-3.32
2024-01-15T00:14:32.102Z,-3.28
2024-01-15T00:16:58.657Z,-3.22
2024-01-15T00:19:25.462Z,-3.23
2024-01-15T00:21:52.130Z,-3.22
2024-01-15T00:24:18.723Z,-3.21
2024-01-15T00:26:45.291Z,-3.18
2024-01-15T00:29:11.763Z,-3.14
2024-01-15T00:31:38.474Z,-3.09
2024-01-15T00:34:05.172Z,-3.05
2024-01-15T00:36:31.728Z,-3.03
2024-01-15T00:38:58.220Z,-3.01
2024-01-15T00:41:24.698Z,-2.99
2024-01-15T00:43:51.200Z,-3.00
2024-01-15T00:46:18.358Z,-2.97
2024-01-15T00:48:45.254Z,-2.95
2024-01-15T00:51:13.036Z,-2.92
2024-01-15T00:53:39.809Z,-2.91
2024-01-15T00:56:06.388Z,-2.93
2024-01-15T00:58:33.060Z,-2.92
2024-01-15T01:00:59.553Z,-2.95
2024-01-15T01:03:26.143Z,-2.94
2024-01-15T01:05:52.792Z,-2.95
2024-01-15T01:08:19.336Z,-2.94
2024-01-15T01:10:45.845Z,-2.95
2024-01-15T01:13:12.389Z,-2.97
2024-01-15T01:15:39.854Z,-2.98
2024-01-15T01:18:06.708Z,-2.99
2024-01-15T01:20:33.526Z,-3.00
2024-01-15T01:23:00.747Z,-3.01
2024-01-15T01:25:27.310Z,-2.99
2024-01-15T01:27:53.805Z,-2.98
2024-01-15T01:30:20.490Z,-2.97
2024-01-15T01:32:47.038Z,-2.95
2024-01-15T01:35:13.921Z,-2.94
2024-01-15T01:37:40.372Z,-2.93
2024-01-15T01:40:07.550Z,-2.90
2024-01-15T01:42:34.089Z,-2.87
2024-01-15T01:45:01.402Z,-2.83
2024-01-15T01:47:28.024Z,-2.83
2024-01-15T01:49:55.179Z,-2.80
2024-01-15T01:52:21.921Z,-2.81
2024-01-15T01:54:48.962Z,-2.81
2024-01-15T01:57:16.369Z,-2.81
2024-01-15T01:59:42.957Z,-2.83
2024-01-15T02:02:09.498Z,-2.75
2024-01-15T02:04:38.070Z,-2.69
2024-01-15T02:07:05.515Z,-2.68
2024-01-15T02:09:33.263Z,-2.63
2024-01-15T02:12:00.214Z,-2.57
2024-01-15T02:14:27.057Z,-2.52
2024-01-15T02:16:53.716Z,-2.53
2024-01-15T02:19:20.414Z,-2.51
2024-01-15T02:21:47.268Z,-2.47
2024-01-15T02:24:14.185Z,-2.43
2024-01-15T02:26:41.006Z,-2.44
2024-01-15T02:29:11.399Z,-2.39
2024-01-15T02:31:38.496Z,-2.35
2024-01-15T02:34:05.857Z,-2.38
2024-01-15T02:36:32.525Z,-2.29
2024-01-15T02:38:58.980Z,-2.25
2024-01-15T02:41:25.610Z,-2.21
2024-01-15T02:43:52.118Z,-2.25
2024-01-15T02:46:18.628Z,-2.22
2024-01-15T02:48:45.578Z,-2.19
2024-01-15T02:51:12.240Z,-2.17
2024-01-15T02:53:40.317Z,-2.18
2024-01-15T02:56:08.969Z,-2.17
2024-01-15T02:58:35.403Z,-2.16
2024-01-15T03:01:02.208Z,-2.14
2024-01-15T03:03:29.380Z,-2.11
2024-01-15T03:05:56.226Z,-2.07
2024-01-15T03:08:24.167Z,-2.04
2024-01-15T03:10:50.837Z,-2.00
2024-01-15T03:13:17.361Z,-1.99
2024-01-15T03:15:44.667Z,-2.06
2024-01-15T03:18:11.460Z,-1.97
2024-01-15T03:20:40.561Z,-1.98
2024-01-15T03:23:07.044Z,-1.96
2024-01-15T03:25:33.666Z,-1.96
2024-01-15T03:28:00.170Z,-2.03
2024-01-15T03:30:26.675Z,-1.96
2024-01-15T03:32:53.267Z,-1.95
2024-01-15T03:35:19.856Z,-1.95
2024-01-15T03:37:46.297Z,-1.92
2024-01-15T03:40:13.938Z,-1.93
2024-01-15T03:42:40.519Z,-1.89
2024-01-15T03:45:07.328Z,-1.85
2024-01-15T03:47:33.955Z,-1.83
2024-01-15T03:50:00.519Z,-1.79
2024-01-15T03:52:27.004Z,-1.79
2024-01-15T03:54:53.589Z,-1.77
2024-01-15T03:57:20.133Z,-1.79
2024-01-15T03:59:48.336Z,-1.79
2024-01-15T04:02:15.483Z,-1.77
2024-01-15T04:04:43.553Z,-1.77
2024-01-15T04:07:13.245Z,-1.71
2024-01-15T04:09:39.797Z,-1.68
2024-01-15T04:12:06.432Z,-1.63
2024-01-15T04:14:33.257Z,-1.60
2024-01-15T04:16:59.711Z,-1.59
2024-01-15T04:19:26.225Z,-1.54
2024-01-15T04:21:52.891Z,-1.56
2024-01-15T04:24:19.474Z,-1.52
2024-01-15T04:26:46.817Z,-1.46
2024-01-15T04:29:13.584Z,-1.44
2024-01-15T04:31:40.392Z,-1.45
2024-01-15T04:34:07.116Z,-1.41
2024-01-15T04:36:40.300Z,-1.37
2024-01-15T04:39:07.180Z,-1.34
2024-01-15T04:41:33.828Z,-1.32
2024-01-15T04:44:02.237Z,-1.27
2024-01-15T04:46:28.690Z,-1.26
2024-01-15T04:48:55.262Z,-1.24
2024-01-15T04:51:21.826Z,-1.23
2024-01-15T04:53:48.302Z,-1.22
2024-01-15T04:56:14.764Z,-1.17
2024-01-15T04:58:41.231Z,-1.12
2024-01-15T05:01:09.502Z,-1.10
2024-01-15T05:03:36.209Z,-1.08
2024-01-15T05:06:02.827Z,-1.11
2024-01-15T05:08:29.406Z,-1.07
2024-01-15T05:10:55.829Z,-1.04
2024-01-15T05:13:22.466Z,-1.05
2024-01-15T05:15:48.994Z,-1.02
2024-01-15T05:18:15.604Z,-0.99
2024-01-15T05:20:42.137Z,-0.97
2024-01-15T05:23:08.874Z,-0.95
2024-01-15T05:25:35.288Z,-0.92
2024-01-15T05:28:02.571Z,-0.90
2024-01-15T05:30:29.197Z,-0.89
2024-01-15T05:32:55.857Z,-0.92
2024-01-15T05:35:22.367Z,-0.89
2024-01-15T05:37:49.395Z,-0.88
2024-01-15T05:40:15.946Z,-0.86
2024-01-15T05:42:42.920Z,-0.84
2024-01-15T05:45:09.975Z,-0.81
2024-01-15T05:47:36.690Z,-0.81
2024-01-15T05:50:03.707Z,-0.77
2024-01-15T05:52:30.471Z,-0.78
2024-01-15T05:54:57.549Z,-0.80
2024-01-15T05:57:24.180Z,-0.77
2024-01-15T05:59:50.764Z,-0.78
2024-01-15T06:02:17.300Z,-0.79
2024-01-15T06:04:43.879Z,-0.91
2024-01-15T06:07:10.453Z,-0.74
2024-01-15T06:09:36.966Z,-0.74
2024-01-15T06:12:03.624Z,-0.73
2024-01-15T06:14:30.065Z,-0.75
2024-01-15T06:16:56.502Z,-0.74
2024-01-15T06:19:23.032Z,-0.71
2024-01-15T06:21:49.706Z,-0.72
2024-01-15T06:24:16.824Z,-0.72
2024-01-15T06:26:43.306Z,-0.70
2024-01-15T06:29:09.777Z,-0.69
2024-01-15T06:31:36.325Z,-0.67
2024-01-15T06:34:03.026Z,-0.65
2024-01-15T06:36:29.652Z,-0.67
2024-01-15T06:38:57.003Z,-0.66
2024-01-15T06:41:23.437Z,-0.66
2024-01-15T06:43:49.957Z,-0.65
2024-01-15T06:46:23.053Z,-0.61
2024-01-15T06:48:50.262Z,-0.62
2024-01-15T06:51:17.669Z,-0.67
2024-01-15T06:53:44.370Z,-0.63
2024-01-15T06:56:10.952Z,-0.61
2024-01-15T06:58:37.728Z,-0.61
2024-01-15T07:01:05.957Z,-0.62
2024-01-15T07:03:32.947Z,-0.65
2024-01-15T07:05:59.537Z,-0.63
2024-01-15T07:08:26.212Z,-0.66
2024-01-15T07:10:53.055Z,-0.68
2024-01-15T07:13:19.497Z,-0.81
2024-01-15T07:15:46.078Z,-0.66
2024-01-15T07:18:12.677Z,-0.69
2024-01-15T07:20:39.262Z,-0.69
2024-01-15T07:23:05.686Z,-0.70
2024-01-15T07:25:32.321Z,-0.71
2024-01-15T07:27:58.827Z,-0.71
2024-01-15T07:30:25.450Z,-0.70
2024-01-15T07:32:53.996Z,-0.73
2024-01-15T07:35:20.576Z,-0.67
2024-01-15T07:37:47.233Z,-0.66
2024-01-15T07:40:13.880Z,-0.65
2024-01-15T07:42:40.641Z,-0.62
2024-01-15T07:45:07.227Z,-0.61
2024-01-15T07:47:33.753Z,-0.63
2024-01-15T07:50:04.139Z,-0.57
2024-01-15T07:52:32.561Z,-0.53
2024-01-15T07:55:00.997Z,-0.52
2024-01-15T07:57:27.693Z,-0.52
2024-01-15T07:59:54.198Z,-0.51
2024-01-15T08:02:20.769Z,-0.50
2024-01-15T08:04:47.318Z,-0.49
2024-01-15T08:07:14.402Z,-0.48
2024-01-15T08:09:41.042Z,-0.46
2024-01-15T08:12:07.744Z,-0.40
2024-01-15T08:14:34.330Z,-0.37
2024-01-15T08:17:00.894Z,-0.33
2024-01-15T08:19:27.573Z,-0.30
2024-01-15T08:21:54.245Z,-0.29
2024-01-15T08:24:20.802Z,-0.26
2024-01-15T08:26:47.516Z,-0.24
2024-01-15T08:29:14.046Z,-0.21
2024-01-15T08:31:40.889Z,-0.20
2024-01-15T08:34:07.773Z,-0.23
2024-01-15T08:36:36.574Z,-0.19
2024-01-15T08:39:05.050Z,-0.16
2024-01-15T08:41:34.743Z,-0.10
2024-01-15T08:44:01.275Z,-0.07
2024-01-15T08:46:27.747Z,-0.07
2024-01-15T08:48:54.244Z,-0.03
2024-01-15T08:51:20.860Z,-0.05
2024-01-15T08:53:47.374Z,-0.02
2024-01-15T08:56:13.881Z,0.03
2024-01-15T08:58:40.334Z,0.07
2024-01-15T09:01:06.987Z,0.08
2024-01-15T09:03:35.044Z,0.15
2024-01-15T09:06:01.720Z,0.20
2024-01-15T09:08:28.819Z,0.22
2024-01-15T09:10:55.322Z,0.28
2024-01-15T09:13:21.782Z,0.35
2024-01-15T09:18:32.938Z,0.41
2024-01-15T09:20:59.926Z,0.44
2024-01-15T09:23:28.788Z,0.44
2024-01-15T09:25:55.895Z,0.48
2024-01-15T09:28:22.350Z,0.51
2024-01-15T09:30:48.865Z,0.50
2024-01-15T09:33:15.587Z,0.54
2024-01-15T09:35:42.181Z,0.59
2024-01-15T09:38:08.651Z,0.64
2024-01-15T09:40:39.502Z,0.67
2024-01-15T09:43:06.333Z,0.68
2024-01-15T09:45:33.188Z,0.71
2024-01-15T09:47:59.798Z,0.74
2024-01-15T09:50:26.288Z,0.78
2024-01-15T09:52:53.747Z,0.77
2024-01-15T09:55:20.515Z,0.79
2024-01-15T09:57:47.705Z,0.79
2024-01-15T10:00:15.902Z,0.78
2024-01-15T10:02:42.438Z,0.80
2024-01-15T10:05:09.389Z,0.82
2024-01-15T10:07:38.439Z,0.75
2024-01-15T10:10:05.384Z,0.79
2024-01-15T10:12:32.160Z,0.79
2024-01-15T10:14:58.722Z,0.82
2024-01-15T10:17:28.289Z,0.86
2024-01-15T10:19:54.958Z,0.85
2024-01-15T10:22:21.539Z,0.84
2024-01-15T10:24:48.970Z,0.81
2024-01-15T10:27:17.168Z,0.61
2024-01-15T10:29:44.105Z,0.77
2024-01-15T10:32:10.975Z,0.72
2024-01-15T10:34:42.699Z,0.78
2024-01-15T10:37:10.555Z,0.74
2024-01-15T10:39:38.060Z,0.71
2024-01-15T10:42:05.584Z,0.77
2024-01-15T10:44:32.542Z,0.74
2024-01-15T10:46:59.249Z,0.78
2024-01-15T10:49:31.901Z,0.70
2024-01-15T10:52:00.090Z,0.76
2024-01-15T10:54:28.297Z,0.79
2024-01-15T10:56:56.767Z,0.82
2024-01-15T10:59:23.835Z,0.83
2024-01-15T11:01:54.544Z,0.84
2024-01-15T11:04:22.610Z,0.81
2024-01-15T11:06:51.967Z,0.81
2024-01-15T11:09:19.681Z,0.80
2024-01-15T11:11:50.805Z,0.81
2024-01-15T11:14:44.948Z,0.82
2024-01-15T11:17:13.188Z,0.83
2024-01-15T11:19:51.630Z,0.85
2024-01-15T11:22:47.711Z,0.84
2024-01-15T11:25:15.709Z,0.81
2024-01-15T11:27:53.185Z,0.82
2024-01-15T11:30:24.100Z,0.83
2024-01-15T11:32:50.832Z,0.81
2024-01-15T11:35:17.635Z,0.81
2024-01-15T11:37:53.760Z,0.81
2024-01-15T11:40:23.803Z,0.80
2024-01-15T11:42:50.867Z,0.79
2024-01-15T11:45:20.409Z,0.79
2024-01-15T11:48:15.856Z,0.77
2024-01-15T11:50:47.097Z,0.76
2024-01-15T11:53:37.522Z,0.76
2024-01-15T11:56:13.207Z,0.74
2024-01-15T11:58:39.666Z,0.69
2024-01-15T12:01:06.295Z,0.63
2024-01-15T12:03:34.896Z,0.47
2024-01-15T12:06:01.742Z,0.44
2024-01-15T12:08:28.470Z,0.38
2024-01-15T12:10:55.143Z,0.30
2024-01-15T12:13:22.326Z,0.12
2024-01-15T12:15:49.368Z,0.02
2024-01-15T12:18:18.269Z,-0.10
2024-01-15T12:20:47.920Z,-0.20
2024-01-15T12:23:14.862Z,-0.23
2024-01-15T12:25:41.385Z,-0.26
2024-01-15T12:28:07.880Z,-0.27
2024-01-15T12:30:37.026Z,-0.31
2024-01-15T12:33:07.698Z,-0.24
2024-01-15T12:35:35.146Z,-0.26
2024-01-15T12:38:04.154Z,-0.22
2024-01-15T12:40:32.890Z,-0.22
2024-01-15T12:42:59.498Z,-0.21
2024-01-15T12:45:26.438Z,-0.21
2024-01-15T12:47:53.733Z,-0.24
2024-01-15T12:50:21.135Z,-0.19
2024-01-15T12:52:48.626Z,-0.20
2024-01-15T12:55:16.215Z,-0.15
2024-01-15T12:57:43.298Z,-0.11
2024-01-15T13:00:14.375Z,-0.09
2024-01-15T13:02:42.698Z,-0.04
2024-01-15T13:05:14.334Z,-0.01
2024-01-15T13:07:41.976Z,-0.02
2024-01-15T13:10:10.096Z,-0.01
2024-01-15T13:12:36.813Z,0.05
2024-01-15T13:15:04.763Z,0.07
2024-01-15T13:17:31.583Z,0.10
2024-01-15T13:19:58.508Z,0.11
2024-01-15T13:22:30.718Z,0.12
2024-01-15T13:24:57.317Z,0.05
2024-01-15T13:27:24.218Z,0.06
2024-01-15T13:29:50.853Z,-0.02
2024-01-15T13:32:26.980Z,-0.10
2024-01-15T13:34:53.659Z,-0.11
2024-01-15T13:37:20.300Z,-0.14
2024-01-15T13:39:46.808Z,-0.10
2024-01-15T13:42:13.437Z,-0.13
2024-01-15T13:44:39.889Z,-0.17
2024-01-15T13:47:06.542Z,-0.17
2024-01-15T13:49:35.126Z,-0.17
2024-01-15T13:52:01.663Z,-0.15
2024-01-15T13:54:41.000Z,-0.11
2024-01-15T13:57:12.522Z,-0.10
2024-01-15T13:59:39.319Z,-0.11
2024-01-15T14:02:06.242Z,-0.10
2024-01-15T14:04:32.682Z,-0.14
2024-01-15T14:06:59.148Z,-0.06
2024-01-15T14:09:26.468Z,-0.04
2024-01-15T14:11:53.073Z,-0.02
2024-01-15T14:14:19.598Z,-0.02
2024-01-15T14:16:46.035Z,-0.02
2024-01-15T14:19:12.714Z,0.03
2024-01-15T14:21:40.079Z,0.04
2024-01-15T14:24:07.536Z,0.03
2024-01-15T14:26:35.161Z,0.03
2024-01-15T14:29:01.676Z,0.02
2024-01-15T14:31:29.529Z,0.00
2024-01-15T14:34:00.551Z,-0.04
2024-01-15T14:36:27.057Z,-0.05
2024-01-15T14:38:53.612Z,-0.06
2024-01-15T14:41:20.145Z,-0.10
2024-01-15T14:43:46.837Z,-0.10
2024-01-15T14:46:13.493Z,-0.14
2024-01-15T14:48:40.097Z,-0.20
2024-01-15T14:51:06.985Z,-0.30
2024-01-15T14:53:33.460Z,-0.34
2024-01-15T14:56:00.005Z,-0.38
2024-01-15T14:58:26.524Z,-0.40
2024-01-15T15:00:53.207Z,-0.41
2024-01-15T15:03:20.036Z,-0.44
2024-01-15T15:05:46.681Z,-0.42
2024-01-15T15:08:13.832Z,-0.47
2024-01-15T15:10:43.113Z,-0.46
2024-01-15T15:13:11.192Z,-0.50
2024-01-15T15:15:38.001Z,-0.53
2024-01-15T15:18:04.741Z,-0.57
2024-01-15T15:20:31.482Z,-0.60
2024-01-15T15:22:58.102Z,-0.62
2024-01-15T15:25:24.688Z,-0.68
2024-01-15T15:27:51.224Z,-0.76
2024-01-15T15:30:17.910Z,-0.79
2024-01-15T15:32:44.477Z,-0.84
2024-01-15T15:35:11.484Z,-0.89
2024-01-15T15:37:38.241Z,-0.84
2024-01-15T15:40:09.595Z,-0.87
2024-01-15T15:42:36.765Z,-0.86
2024-01-15T15:45:04.712Z,-0.85
2024-01-15T15:47:31.548Z,-0.90
2024-01-15T15:49:58.388Z,-0.92
2024-01-15T15:52:25.246Z,-0.91
2024-01-15T15:54:51.986Z,-0.94
2024-01-15T15:57:18.547Z,-0.94
2024-01-15T15:59:45.455Z,-0.94
2024-01-15T16:02:12.002Z,-0.96
2024-01-15T16:04:38.656Z,-0.93
2024-01-15T16:07:08.967Z,-0.96
2024-01-15T16:09:35.794Z,-0.98
2024-01-15T16:12:02.368Z,-0.99
2024-01-15T16:14:28.876Z,-0.98
2024-01-15T16:23:13.622Z,-0.99
2024-01-15T16:23:26.838Z,-1.01
2024-01-15T16:23:42.201Z,-1.05
2024-01-15T16:25:19.112Z,-1.07
2024-01-15T16:27:46.182Z,-1.06
2024-01-15T16:30:21.137Z,-1.05
2024-01-15T16:32:56.342Z,-1.07
2024-01-15T16:35:23.170Z,-1.06
2024-01-15T16:37:49.805Z,-1.04
2024-01-15T16:40:16.511Z,-1.04
2024-01-15T16:42:43.071Z,-1.09
2024-01-15T16:45:10.186Z,-1.15
2024-01-15T16:47:36.729Z,-1.23
2024-01-15T16:50:05.002Z,-1.30
2024-01-15T16:52:31.822Z,-1.37
2024-01-15T16:54:58.324Z,-1.46
2024-01-15T16:57:24.824Z,-1.57
2024-01-15T16:59:51.313Z,-1.65
2024-01-15T17:02:18.144Z,-1.67
2024-01-15T17:04:44.764Z,-1.68
2024-01-15T17:07:11.493Z,-1.75
2024-01-15T17:09:37.967Z,-1.69
2024-01-15T17:12:05.308Z,-1.67
2024-01-15T17:14:31.959Z,-1.66
2024-01-15T17:17:01.018Z,-1.64
2024-01-15T17:19:28.678Z,-1.61
2024-01-15T17:21:55.384Z,-1.61
2024-01-15T17:24:22.306Z,-1.56
2024-01-15T17:26:49.996Z,-1.52
2024-01-15T17:29:17.121Z,-1.55
2024-01-15T17:31:43.618Z,-1.52
2024-01-15T17:34:11.198Z,-1.52
2024-01-15T17:36:37.923Z,-1.53
2024-01-15T17:39:06.547Z,-1.53
2024-01-15T17:41:34.048Z,-1.56
2024-01-15T17:44:02.073Z,-1.59
2024-01-15T17:46:30.122Z,-1.61
2024-01-15T17:49:03.687Z,-1.65
2024-01-15T17:51:34.288Z,-1.68
2024-01-15T17:54:01.464Z,-1.68
2024-01-15T17:56:28.511Z,-1.66
2024-01-15T17:58:55.825Z,-1.71
2024-01-15T18:01:23.054Z,-1.70
2024-01-15T18:03:49.618Z,-1.69
2024-01-15T18:06:17.060Z,-1.74
2024-01-15T18:08:43.564Z,-1.74
2024-01-15T18:11:19.257Z,-1.70
2024-01-15T18:13:46.714Z,-1.72
2024-01-15T18:16:13.638Z,-1.67
2024-01-15T18:18:40.293Z,-1.63
2024-01-15T18:21:06.793Z,-1.62
2024-01-15T18:23:34.683Z,-1.60
2024-01-15T18:26:01.389Z,-1.62
2024-01-15T18:28:29.961Z,-1.60
2024-01-15T18:30:56.417Z,-1.56
2024-01-15T18:33:24.336Z,-1.57
2024-01-15T18:35:51.287Z,-1.55
2024-01-15T18:38:18.128Z,-1.55
2024-01-15T18:40:44.724Z,-1.56
2024-01-15T18:43:11.305Z,-1.56
2024-01-15T18:45:37.813Z,-1.57
2024-01-15T18:48:04.630Z,-1.60
2024-01-15T18:50:31.215Z,-1.62
2024-01-15T18:52:57.833Z,-1.64
2024-01-15T18:55:24.694Z,-1.65
2024-01-15T18:57:52.002Z,-1.68
2024-01-15T19:00:20.118Z,-1.68
2024-01-15T19:02:46.677Z,-1.69
2024-01-15T19:05:13.522Z,-1.69
2024-01-15T19:07:40.143Z,-1.73
2024-01-15T19:10:08.234Z,-1.72
2024-01-15T19:12:34.773Z,-1.63
2024-01-15T19:15:01.335Z,-1.57
2024-01-15T19:17:27.917Z,-1.53
2024-01-15T19:19:54.469Z,-1.50
2024-01-15T19:22:21.094Z,-1.50
2024-01-15T19:24:47.804Z,-1.51
2024-01-15T19:27:14.615Z,-1.49
2024-01-15T19:29:41.264Z,-1.54
2024-01-15T19:32:07.920Z,-1.58
2024-01-15T19:34:34.529Z,-1.59
2024-01-15T19:37:01.087Z,-1.61
2024-01-15T19:39:29.371Z,-1.60
2024-01-15T19:41:56.754Z,-1.67
2024-01-15T19:44:23.438Z,-1.69
2024-01-15T19:46:49.890Z,-1.72
2024-01-15T19:49:16.984Z,-1.75
2024-01-15T19:51:44.491Z,-1.78
2024-01-15T19:54:11.560Z,-1.78
2024-01-15T19:56:39.104Z,-1.77
2024-01-15T19:59:06.752Z,-1.75
2024-01-15T20:01:33.612Z,-1.77
2024-01-15T20:04:00.135Z,-1.74
2024-01-15T20:06:26.768Z,-1.71
2024-01-15T20:08:55.366Z,-1.69
2024-01-15T20:11:21.975Z,-1.69
2024-01-15T20:13:49.502Z,-1.66
2024-01-15T20:16:16.831Z,-1.59
2024-01-15T20:18:43.735Z,-1.57
2024-01-15T20:21:11.165Z,-1.54
2024-01-15T20:23:46.537Z,-1.54
2024-01-15T20:26:21.483Z,-1.52
2024-01-15T20:28:48.348Z,-1.47
2024-01-15T20:31:14.984Z,-1.47
2024-01-15T20:33:41.788Z,-1.42
2024-01-15T20:36:13.364Z,-1.41
2024-01-15T20:38:40.710Z,-1.36
2024-01-15T20:41:07.736Z,-1.33
2024-01-15T20:43:35.104Z,-1.34
2024-01-15T20:46:02.564Z,-1.34
2024-01-15T20:48:29.474Z,-1.30
2024-01-15T20:50:56.030Z,-1.26
2024-01-15T20:53:23.277Z,-1.25
2024-01-15T20:55:49.771Z,-1.25
2024-01-15T20:58:24.250Z,-1.28
2024-01-15T21:00:51.099Z,-1.22
2024-01-15T21:03:18.764Z,-1.24
2024-01-15T21:05:45.529Z,-1.21
2024-01-15T21:08:12.132Z,-1.21
2024-01-15T21:10:38.663Z,-1.19
2024-01-15T21:13:05.358Z,-1.22
2024-01-15T21:15:31.870Z,-1.21
2024-01-15T21:17:58.476Z,-1.18
2024-01-15T21:20:25.056Z,-1.22
2024-01-15T21:22:51.556Z,-1.21
2024-01-15T21:25:18.080Z,-1.24
2024-01-15T21:27:47.110Z,-1.24
2024-01-15T21:30:17.528Z,-1.24
2024-01-15T21:32:44.532Z,-1.25
2024-01-15T21:35:13.171Z,-1.20
2024-01-15T21:37:44.231Z,-1.22
2024-01-15T21:40:11.453Z,-1.22
2024-01-15T21:42:38.717Z,-1.23
2024-01-15T21:45:09.595Z,-1.22
2024-01-15T21:47:38.130Z,-1.23
2024-01-15T21:50:10.012Z,-1.18
2024-01-15T21:52:36.621Z,-1.22
2024-01-15T21:55:03.450Z,-1.18
2024-01-15T21:57:30.011Z,-1.34
2024-01-15T21:59:56.563Z,-1.18
2024-01-15T22:02:23.616Z,-1.17
2024-01-15T22:04:50.104Z,-1.22
2024-01-15T22:07:17.130Z,-1.17
2024-01-15T22:09:43.577Z,-1.17
2024-01-15T22:12:10.167Z,-1.15
2024-01-15T22:14:36.873Z,-1.17
2024-01-15T22:17:03.479Z,-1.16
2024-01-15T22:19:30.076Z,-1.16
2024-01-15T22:21:56.549Z,-1.14
2024-01-15T22:24:23.053Z,-1.12
2024-01-15T22:26:49.960Z,-1.11
2024-01-15T22:29:16.586Z,-1.12
2024-01-15T22:31:43.118Z,-1.14
2024-01-15T22:34:10.097Z,-1.16
2024-01-15T22:36:36.633Z,-1.17
2024-01-15T22:39:03.180Z,-1.17
2024-01-15T22:41:30.838Z,-1.20
2024-01-15T22:43:57.382Z,-1.21
2024-01-15T22:46:24.079Z,-1.19
2024-01-15T22:48:50.723Z,-1.20
2024-01-15T22:51:17.243Z,-1.18
2024-01-15T22:53:43.908Z,-1.20
2024-01-15T22:56:10.458Z,-1.20
2024-01-15T22:58:36.961Z,-1.22
2024-01-15T23:01:03.977Z,-1.18
2024-01-15T23:03:30.949Z,-1.23
2024-01-15T23:05:57.690Z,-1.28
2024-01-15T23:08:24.309Z,-1.30
2024-01-15T23:10:50.893Z,-1.29
2024-01-15T23:13:17.832Z,-1.32
2024-01-15T23:15:44.423Z,-1.34
2024-01-15T23:18:12.458Z,-1.30
2024-01-15T23:20:39.283Z,-1.38
2024-01-15T23:23:05.967Z,-1.31
2024-01-15T23:25:32.621Z,-1.31
2024-01-15T23:27:59.169Z,-1.33
2024-01-15T23:30:25.671Z,-1.33
2024-01-15T23:32:53.133Z,-1.36
2024-01-15T23:35:19.846Z,-1.33
2024-01-15T23:37:46.371Z,-1.36
2024-01-15T23:40:13.546Z,-1.38
2024-01-15T23:42:40.748Z,-1.40
2024-01-15T23:45:07.846Z,-1.36
2024-01-15T23:47:34.578Z,-1.38
2024-01-15T23:50:01.435Z,-1.37
2024-01-15T23:52:28.117Z,-1.37
2024-01-15T23:54:54.737Z,-1.35
2024-01-15T23:57:21.257Z,-1.36
2024-01-15T23:59:47.854Z,-1.36
